Time;durP1;ratioP1;P1;durP2;ratioP2;P2;SDS_P1;SDS_P2;PMS_P1;PMS_P2;Temp;Humidity;BMP_temperature;BMP_pressure;BME280_temperature;BME280_humidity;BME280_pressure;Samples;Min_cycle;Max_cycle;Signal;HPM_P1;HPM_P2
2022/05/30 00:02:22;;;;;;;4.57;1.63;;;;;;;10.08;80.64;101382.97;5095772;28;20480;-35
2022/05/30 00:04:47;;;;;;;7.13;2.57;;;;;;;10.10;81.06;101401.66;5095596;28;20070;-35
2022/05/30 00:07:13;;;;;;;6.23;1.73;;;;;;;10.07;81.35;101398.38;5095651;28;20024;-35
2022/05/30 00:09:38;;;;;;;5.53;1.93;;;;;;;10.13;81.28;101393.16;5094871;28;20028;-35
2022/05/30 00:12:04;;;;;;;5.80;2.00;;;;;;;10.06;81.54;101387.78;5095184;28;20278;-35
2022/05/30 00:14:29;;;;;;;;;;;;;;;10.25;79.84;101392.31;5095511;28;20441;-34
2022/05/30 00:16:56;;;;;;;4.30;1.50;;;;;;;9.96;81.37;101380.13;5094867;28;19955;-35
2022/05/30 00:19:21;;;;;;;6.68;1.70;;;;;;;9.96;81.96;101385.53;5094669;28;20270;-35
2022/05/30 00:21:47;;;;;;;5.13;2.00;;;;;;;10.00;81.23;101385.91;5094519;28;20024;-35
2022/05/30 00:24:12;;;;;;;6.47;1.60;;;;;;;9.97;80.96;101389.88;5093810;28;20769;-35
2022/05/30 00:26:38;;;;;;;4.00;1.40;;;;;;;9.87;82.44;101380.59;5095146;28;20048;-35
2022/05/30 00:29:04;;;;;;;4.85;1.73;;;;;;;9.96;82.14;101390.94;5095222;28;20027;-35
2022/05/30 00:31:31;;;;;;;6.65;1.73;;;;;;;9.69;82.51;101386.66;5094731;28;20035;-34
2022/05/30 00:33:56;;;;;;;5.40;1.55;;;;;;;9.67;82.47;101386.03;5094473;28;20101;-35
2022/05/30 00:36:22;;;;;;;4.57;1.38;;;;;;;9.60;83.00;101387.91;5094853;28;20039;-34
2022/05/30 00:38:47;;;;;;;7.53;1.93;;;;;;;9.63;83.20;101372.13;5094300;28;20035;-34
2022/05/30 00:41:12;;;;;;;4.47;1.90;;;;;;;9.67;82.70;101383.34;5095525;28;20027;-35
2022/05/30 00:43:40;;;;;;;4.00;1.50;;;;;;;9.60;83.40;101379.81;5094432;28;20101;-35
2022/05/30 00:46:11;;;;;;;3.45;1.58;;;;;;;9.54;83.28;101378.78;5095017;28;20024;-35
2022/05/30 00:48:58;;;;;;;4.65;1.33;;;;;;;9.58;83.02;101380.03;5095217;28;20035;-35
2022/05/30 00:51:33;;;;;;;6.30;1.67;;;;;;;9.47;84.51;101373.41;5094523;28;20035;-35
2022/05/30 00:54:01;;;;;;;4.15;1.15;;;;;;;9.38;84.13;101374.69;5094296;28;20028;-34
2022/05/30 00:56:37;;;;;;;5.22;1.20;;;;;;;9.32;84.35;101374.66;5094366;28;20349;-35
2022/05/30 00:59:04;;;;;;;5.70;1.50;;;;;;;9.28;84.91;101379.69;5093970;28;20541;-35
2022/05/30 01:01:31;;;;;;;5.65;1.63;;;;;;;9.21;84.92;101371.56;5094699;28;20035;-35
2022/05/30 01:06:46;;;;;;;4.27;1.30;;;;;;;9.13;85.63;101362.88;5094992;28;20039;-35
2022/05/30 01:09:16;;;;;;;4.47;1.50;;;;;;;9.17;85.13;101369.50;5094369;28;20273;-35
2022/05/30 01:11:47;;;;;;;6.15;1.95;;;;;;;9.10;86.03;101361.41;5094199;28;20386;-34
2022/05/30 01:14:13;;;;;;;6.10;1.80;;;;;;;9.14;85.80;101368.06;5093637;28;20031;-34
2022/05/30 01:16:38;;;;;;;4.80;1.75;;;;;;;9.09;85.89;101359.75;5094189;28;20028;-34
2022/05/30 01:19:14;;;;;;;6.43;1.70;;;;;;;9.09;85.43;101375.94;5093930;28;20032;-34
2022/05/30 01:22:04;;;;;;;4.03;1.40;;;;;;;9.02;86.09;101367.84;5093846;28;20028;-35
2022/05/30 01:24:32;;;;;;;4.85;1.60;;;;;;;8.99;85.27;101373.66;5093814;28;20024;-34
2022/05/30 01:27:07;;;;;;;3.47;1.33;;;;;;;8.94;85.92;101378.03;5094111;28;20032;-35
2022/05/30 01:29:40;;;;;;;5.25;1.48;;;;;;;8.90;86.69;101368.69;5093679;28;20028;-34
2022/05/30 01:32:06;;;;;;;5.25;1.30;;;;;;;8.86;86.35;101372.81;5093308;28;20024;-35
2022/05/30 01:34:31;;;;;;;3.53;1.23;;;;;;;8.75;87.17;101350.84;5093440;28;20050;-34
2022/05/30 01:36:56;;;;;;;5.53;1.80;;;;;;;8.75;86.93;101347.31;5094358;28;20063;-35
2022/05/30 01:39:22;;;;;;;5.15;1.60;;;;;;;8.70;86.76;101345.22;5093550;28;20274;-34
2022/05/30 01:41:47;;;;;;;3.87;1.40;;;;;;;8.78;87.06;101357.66;5093222;28;20039;-35
2022/05/30 01:44:14;;;;;;;5.23;1.70;;;;;;;8.74;86.68;101354.56;5093990;28;20472;-34
2022/05/30 01:46:40;;;;;;;8.07;1.98;;;;;;;8.67;87.32;101358.28;5094120;28;20030;-34
2022/05/30 01:49:05;;;;;;;8.48;1.80;;;;;;;8.74;87.19;101361.84;5092950;28;20115;-35
2022/05/30 01:51:30;;;;;;;5.23;1.63;;;;;;;8.73;86.94;101355.59;5093730;28;20112;-34
2022/05/30 01:53:56;;;;;;;3.73;1.43;;;;;;;8.65;87.63;101353.09;5092933;28;20074;-34
2022/05/30 01:56:21;;;;;;;6.90;1.80;;;;;;;8.70;87.39;101360.59;5093067;28;20366;-34
2022/05/30 01:58:47;;;;;;;4.18;1.33;;;;;;;8.68;87.72;101354.53;5092926;28;20107;-35
2022/05/30 02:01:19;;;;;;;4.55;1.33;;;;;;;8.63;87.10;101351.63;5093509;28;20020;-35
2022/05/30 02:03:45;;;;;;;4.32;1.77;;;;;;;8.60;87.38;101350.19;5093662;28;20074;-34
2022/05/30 02:06:11;;;;;;;3.88;1.30;;;;;;;8.51;87.39;101341.47;5093429;28;20028;-34
2022/05/30 02:08:36;;;;;;;4.28;1.40;;;;;;;8.48;87.74;101341.88;5093804;28;20039;-34
2022/05/30 02:11:02;;;;;;;6.27;2.00;;;;;;;8.46;88.17;101337.75;5093377;28;20107;-34
2022/05/30 02:13:27;;;;;;;5.82;1.35;;;;;;;8.48;88.20;101352.66;5092900;28;20082;-34
2022/05/30 02:18:37;;;;;;;5.68;1.30;;;;;;;8.34;87.62;101345.53;5093188;28;20173;-34
2022/05/30 02:21:03;;;;;;;5.13;1.50;;;;;;;8.38;87.62;101349.53;5093013;28;20467;-34
2022/05/30 02:23:28;;;;;;;3.05;1.30;;;;;;;8.38;87.65;101348.69;5093073;28;20048;-34
2022/05/30 02:25:53;;;;;;;6.43;1.67;;;;;;;8.39;88.50;101353.06;5093165;28;20032;-34
2022/05/30 02:28:18;;;;;;;3.83;1.37;;;;;;;8.40;88.54;101342.09;5092612;28;20034;-34
2022/05/30 02:30:44;;;;;;;5.07;1.60;;;;;;;8.33;88.36;101341.19;5093055;28;20031;-34
2022/05/30 02:38:37;;;;;;;3.78;1.73;;;;;;;8.36;89.42;101348.91;5092553;28;20139;-35
2022/05/30 02:41:02;;;;;;;4.70;1.90;;;;;;;8.35;89.43;101341.00;5092733;28;20456;-34
2022/05/30 02:43:28;;;;;;;4.10;1.98;;;;;;;8.31;89.73;101320.88;5092870;28;20452;-34
2022/05/30 02:45:53;;;;;;;5.83;1.90;;;;;;;8.36;89.96;101326.50;5096571;28;20024;-34
2022/05/30 02:48:18;;;;;;;6.33;1.70;;;;;;;8.45;89.44;101338.78;5097159;28;20028;-34
2022/05/30 02:50:45;;;;;;;7.03;2.77;;;;;;;8.41;89.60;101319.47;5097224;28;20020;-34
2022/05/30 02:53:11;;;;;;;4.82;1.80;;;;;;;8.32;90.09;101311.75;5096508;28;20444;-34
2022/05/30 02:55:36;;;;;;;4.55;1.52;;;;;;;8.45;89.94;101336.09;5096699;28;20024;-34
2022/05/30 02:58:03;;;;;;;4.87;1.83;;;;;;;8.47;90.34;101334.81;5097306;28;20061;-34
2022/05/30 03:00:28;;;;;;;4.82;1.77;;;;;;;8.48;90.35;101335.66;5096480;28;20452;-34
2022/05/30 03:02:53;;;;;;;4.93;1.50;;;;;;;8.47;89.95;101336.69;5096115;28;20028;-34
2022/05/30 03:05:19;;;;;;;4.17;2.07;;;;;;;8.59;89.45;101342.28;5095637;28;20028;-34
2022/05/30 03:07:44;;;;;;;4.13;1.57;;;;;;;8.55;89.47;101343.78;5096635;28;20036;-35
2022/05/30 03:10:09;;;;;;;4.00;1.50;;;;;;;8.60;88.83;101343.97;5096316;28;20028;-34
2022/05/30 03:12:35;;;;;;;5.77;2.00;;;;;;;8.55;89.34;101338.38;5096722;28;20024;-34
2022/05/30 03:15:00;;;;;;;4.80;1.87;;;;;;;8.46;89.51;101333.19;5096467;28;20281;-34
2022/05/30 03:17:25;;;;;;;7.87;1.93;;;;;;;8.54;90.62;101342.09;5096775;28;20078;-34
2022/05/30 03:19:52;;;;;;;7.23;2.20;;;;;;;8.50;90.18;101344.38;5096304;28;20035;-35
2022/05/30 03:22:18;;;;;;;4.03;1.90;;;;;;;8.51;90.42;101346.88;5096003;28;20317;-34
2022/05/30 03:24:43;;;;;;;4.35;2.20;;;;;;;8.54;90.04;101344.78;5096042;28;20034;-34
2022/05/30 03:27:08;;;;;;;5.13;2.00;;;;;;;8.48;90.21;101332.97;5096002;28;20103;-35
2022/05/30 03:29:34;;;;;;;6.00;2.07;;;;;;;8.47;90.56;101351.00;5095654;28;20024;-34
2022/05/30 03:31:59;;;;;;;5.97;2.20;;;;;;;8.57;90.39;101355.16;5096065;28;20024;-34
2022/05/30 03:34:24;;;;;;;7.00;2.37;;;;;;;8.57;90.56;101352.47;5096861;28;20152;-34
2022/05/30 03:36:50;;;;;;;6.43;2.40;;;;;;;8.51;90.48;101341.47;5095446;28;20073;-34
2022/05/30 03:39:15;;;;;;;5.93;2.87;;;;;;;8.55;91.24;101352.69;5095722;28;20028;-34
2022/05/30 03:41:40;;;;;;;5.43;2.30;;;;;;;8.55;90.91;101344.59;5095984;28;20460;-34
2022/05/30 03:44:06;;;;;;;7.70;3.80;;;;;;;8.55;91.60;101351.84;5095598;28;20024;-34
2022/05/30 03:46:32;;;;;;;6.60;2.50;;;;;;;8.55;91.15;101354.56;5095900;28;20277;-34
2022/05/30 03:48:57;;;;;;;;;;;;;;;8.72;90.21;101361.19;5096221;28;20118;-35
2022/05/30 03:51:22;;;;;;;5.47;2.55;;;;;;;8.62;90.45;101361.59;5095471;28;19959;-34
2022/05/30 03:53:51;;;;;;;6.47;2.73;;;;;;;8.63;90.98;101360.56;5095328;28;20043;-35
2022/05/30 03:56:16;;;;;;;6.20;2.60;;;;;;;8.64;91.41;101367.63;5095799;28;20428;-34
2022/05/30 03:58:41;;;;;;;9.27;3.20;;;;;;;8.67;91.29;101360.97;5095069;28;20032;-34
2022/05/30 04:01:08;;;;;;;9.70;2.93;;;;;;;8.69;91.93;101361.63;5095880;28;20089;-35
2022/05/30 04:03:34;;;;;;;4.90;2.28;;;;;;;8.66;91.27;101343.16;5095283;28;20416;-35
2022/05/30 04:06:00;;;;;;;4.68;2.70;;;;;;;8.75;91.21;101360.78;5095464;28;20024;-35
2022/05/30 04:08:25;;;;;;;6.18;3.20;;;;;;;8.78;91.04;101352.28;5095628;28;20369;-35
2022/05/30 04:10:51;;;;;;;6.30;3.37;;;;;;;8.82;91.24;101355.38;5094880;28;20062;-35
2022/05/30 04:13:16;;;;;;;7.47;3.23;;;;;;;8.84;91.33;101353.34;5094766;28;20036;-35
2022/05/30 04:15:42;;;;;;;7.90;3.90;;;;;;;8.86;90.92;101346.69;5095313;28;20028;-35
2022/05/30 04:18:07;;;;;;;5.45;3.10;;;;;;;8.86;90.39;101349.38;5095420;28;20417;-35
2022/05/30 04:20:33;;;;;;;6.93;3.55;;;;;;;8.82;91.14;101350.81;5095187;28;20380;-35
2022/05/30 04:22:59;;;;;;;6.13;2.93;;;;;;;8.78;91.13;101336.09;5094755;28;20032;-35
2022/05/30 04:25:24;;;;;;;7.15;3.42;;;;;;;8.86;90.56;101349.38;5095262;28;20089;-35
2022/05/30 04:27:49;;;;;;;7.90;3.80;;;;;;;8.84;91.76;101350.63;5095058;28;20074;-35
2022/05/30 04:30:16;;;;;;;7.67;3.53;;;;;;;8.86;90.87;101346.69;5094409;28;20115;-35
2022/05/30 04:32:42;;;;;;;9.63;3.83;;;;;;;8.88;91.34;101352.72;5095181;28;20079;-35
2022/05/30 04:35:08;;;;;;;4.70;2.85;;;;;;;8.84;91.52;101354.16;5094463;28;20028;-35
2022/05/30 04:37:34;;;;;;;;;;;;;;;8.99;89.43;101349.38;5095088;28;20036;-35
2022/05/30 04:39:59;;;;;;;5.53;2.92;;;;;;;8.74;91.29;101340.25;5094523;28;19922;-35
2022/05/30 04:42:24;;;;;;;5.10;2.87;;;;;;;8.82;90.98;101358.09;5094537;28;20109;-35
2022/05/30 04:44:50;;;;;;;5.47;3.20;;;;;;;8.81;90.95;101343.78;5094420;28;20103;-35
2022/05/30 04:47:15;;;;;;;6.70;3.20;;;;;;;8.94;91.49;101359.97;5094768;28;20059;-35
2022/05/30 04:49:40;;;;;;;7.53;3.27;;;;;;;8.97;90.69;101356.84;5093498;28;20036;-35
2022/05/30 04:52:06;;;;;;;7.30;3.50;;;;;;;8.91;90.17;101349.59;5094035;28;20456;-35
2022/05/30 04:54:32;;;;;;;6.60;3.60;;;;;;;8.98;90.62;101358.53;5094457;28;20016;-35
2022/05/30 04:56:58;;;;;;;7.60;3.77;;;;;;;8.96;91.00;101355.19;5094553;28;20020;-35
2022/05/30 04:59:24;;;;;;;9.68;3.88;;;;;;;9.06;90.28;101367.44;5093853;28;20028;-35
2022/05/30 05:01:49;;;;;;;8.07;3.50;;;;;;;9.00;90.62;101369.94;5094440;28;20051;-35
2022/05/30 05:04:14;;;;;;;7.57;3.60;;;;;;;9.08;90.49;101362.66;5094209;28;20411;-35
2022/05/30 05:06:43;;;;;;;8.53;3.93;;;;;;;9.03;91.22;101357.91;5093683;28;20020;-35
2022/05/30 05:09:11;;;;;;;6.82;3.38;;;;;;;9.17;89.86;101374.88;5093984;28;20357;-36
2022/05/30 05:11:37;;;;;;;8.85;4.00;;;;;;;9.26;90.11;101371.75;5094153;28;20085;-35
2022/05/30 05:14:02;;;;;;;7.97;3.55;;;;;;;9.41;89.51;101373.41;5093812;28;20031;-35
2022/05/30 05:16:30;;;;;;;7.77;3.40;;;;;;;9.51;88.51;101366.53;5094131;28;20028;-35
2022/05/30 05:18:56;;;;;;;6.65;3.30;;;;;;;9.60;87.51;101360.91;5093487;28;20080;-35
2022/05/30 05:21:26;;;;;;;8.63;3.13;;;;;;;9.68;88.34;101350.72;5093906;28;20115;-35
2022/05/30 05:23:51;;;;;;;10.70;3.58;;;;;;;9.87;87.64;101367.91;5094155;28;20028;-35
2022/05/30 05:26:18;;;;;;;5.97;2.90;;;;;;;9.95;86.97;101364.94;5094092;28;20027;-35
2022/05/30 05:28:44;;;;;;;6.75;3.50;;;;;;;10.10;86.71;101370.06;5094334;28;20055;-35
2022/05/30 05:31:14;;;;;;;5.20;2.30;;;;;;;10.17;85.56;101357.38;5093227;28;20063;-35
2022/05/30 05:33:40;;;;;;;4.03;2.60;;;;;;;10.23;83.81;101350.28;5093641;28;20051;-35
2022/05/30 05:36:05;;;;;;;3.85;2.42;;;;;;;10.38;83.20;101374.34;5075818;28;20082;-35
2022/05/30 05:38:30;;;;;;;4.27;2.27;;;;;;;10.43;82.57;101375.34;5093476;28;20039;-35
2022/05/30 05:40:56;;;;;;;8.63;3.17;;;;;;;10.47;80.23;101379.28;5091991;28;20269;-35
2022/05/30 05:43:22;;;;;;;6.47;2.33;;;;;;;10.47;81.61;101365.75;5093377;28;20039;-35
2022/05/30 05:45:48;;;;;;;7.82;2.40;;;;;;;10.54;80.62;101377.38;5093645;28;20020;-35
2022/05/30 05:48:15;;;;;;;4.15;2.00;;;;;;;10.65;80.70;101386.66;5093031;28;20093;-35
2022/05/30 05:50:42;;;;;;;7.65;2.40;;;;;;;10.68;80.40;101382.66;5093560;28;20031;-35
2022/05/30 05:53:09;;;;;;;4.82;2.55;;;;;;;10.70;80.03;101386.00;5092112;28;20036;-35
2022/05/30 05:55:35;;;;;;;5.00;2.50;;;;;;;10.51;79.83;101368.84;5093833;28;20069;-35
2022/05/30 05:58:00;;;;;;;6.00;2.65;;;;;;;10.60;79.48;101382.97;5093710;28;20056;-35
2022/05/30 06:00:26;;;;;;;4.67;2.37;;;;;;;10.72;80.08;101386.59;5093684;28;20036;-35
2022/05/30 06:02:51;;;;;;;;;;;;;;;11.00;80.87;101391.59;5093154;28;20278;-35
2022/05/30 06:05:17;;;;;;;4.83;1.90;;;;;;;10.97;79.18;101384.75;5093490;28;19953;-35
2022/05/30 06:07:44;;;;;;;5.22;1.88;;;;;;;10.98;76.56;101390.97;5093300;28;20031;-35
2022/05/30 06:10:12;;;;;;;7.30;2.45;;;;;;;11.08;77.28;101392.16;5092904;28;20458;-35
2022/05/30 06:12:42;;;;;;;6.53;2.63;;;;;;;11.06;77.30;101394.25;5093733;28;20101;-35
2022/05/30 06:15:10;;;;;;;6.68;2.10;;;;;;;11.16;77.08;101385.63;5092923;28;20024;-35
2022/05/30 06:17:40;;;;;;;5.18;1.60;;;;;;;11.24;76.68;101389.94;5092831;28;20076;-35
2022/05/30 06:20:07;;;;;;;3.63;1.40;;;;;;;11.24;75.30;101387.25;5092742;28;20020;-35
2022/05/30 06:22:33;;;;;;;5.28;1.60;;;;;;;11.00;73.03;101370.78;5092869;28;20376;-35
2022/05/30 06:24:58;;;;;;;4.65;1.60;;;;;;;11.28;74.56;101391.16;5093117;28;20028;-35
2022/05/30 06:27:24;;;;;;;5.33;1.60;;;;;;;11.33;75.47;101394.03;5092800;28;20031;-35
2022/05/30 06:29:51;;;;;;;5.47;1.80;;;;;;;11.41;74.41;101396.44;5093047;28;20305;-35
2022/05/30 06:32:16;;;;;;;3.30;1.45;;;;;;;11.46;74.11;101398.47;5092677;28;20054;-35
2022/05/30 06:34:42;;;;;;;4.65;1.60;;;;;;;11.48;74.43;101397.22;5092294;28;20044;-35
2022/05/30 06:37:10;;;;;;;3.25;1.60;;;;;;;11.44;73.29;101398.72;5092489;28;20434;-35
2022/05/30 06:39:36;;;;;;;4.22;1.65;;;;;;;11.25;73.87;101372.66;5093025;28;20032;-35
2022/05/30 06:42:01;;;;;;;;;;;;;;;11.40;73.04;101394.78;5093190;28;20110;-35
2022/05/30 06:44:27;;;;;;;5.78;1.23;;;;;;;11.44;72.62;101395.19;5092405;28;19912;-35
2022/05/30 06:46:52;;;;;;;7.90;1.97;;;;;;;11.54;72.22;101396.31;5093032;28;20425;-35
2022/05/30 06:49:17;;;;;;;2.57;0.90;;;;;;;11.61;70.71;101404.38;5092427;28;20368;-35
2022/05/30 06:51:44;;;;;;;4.40;1.00;;;;;;;11.57;68.79;101397.75;5092474;28;20024;-35
2022/05/30 06:54:09;;;;;;;;;;;;;;;11.69;71.44;101397.84;5093468;28;20154;-35
2022/05/30 06:56:39;;;;;;;3.92;1.52;;;;;;;11.58;69.73;101397.53;5092483;28;19981;-35
2022/05/30 06:59:05;;;;;;;4.47;1.45;;;;;;;11.53;68.50;101386.53;5092189;28;20140;-35
2022/05/30 07:01:34;;;;;;;5.38;1.40;;;;;;;11.49;67.90;101406.16;5090836;28;20499;-35
2022/05/30 07:03:59;;;;;;;4.95;1.20;;;;;;;11.43;68.36;101407.91;5092412;28;20040;-35
2022/05/30 07:06:31;;;;;;;3.85;1.17;;;;;;;11.40;69.83;101408.31;5091872;28;20039;-35
2022/05/30 07:08:57;;;;;;;4.32;1.08;;;;;;;11.37;70.12;101399.81;5092559;28;20039;-35
2022/05/30 07:11:23;;;;;;;5.63;1.20;;;;;;;11.44;68.66;101414.97;5093194;28;20028;-35
2022/05/30 07:13:49;;;;;;;3.97;1.20;;;;;;;11.33;66.62;101400.28;5092320;28;20085;-35
2022/05/30 07:16:15;;;;;;;2.33;1.05;;;;;;;11.39;68.41;101406.69;5093148;28;20036;-35
2022/05/30 07:18:42;;;;;;;3.38;1.15;;;;;;;11.36;68.72;101404.41;5092924;28;20039;-35
2022/05/30 07:21:10;;;;;;;5.25;1.33;;;;;;;11.32;67.25;101404.03;5092361;28;20472;-35
2022/05/30 07:23:37;;;;;;;3.53;1.10;;;;;;;11.44;68.16;101398.72;5092522;28;20415;-35
2022/05/30 07:26:06;;;;;;;2.88;0.90;;;;;;;11.76;66.88;101395.88;5092805;28;20024;-35
2022/05/30 07:28:32;;;;;;;2.88;1.20;;;;;;;12.03;65.09;101404.56;5092959;28;20039;-35
2022/05/30 07:31:10;;;;;;;4.70;1.35;;;;;;;12.14;66.28;101403.78;5094559;28;20033;-35
2022/05/30 07:33:36;;;;;;;4.97;1.00;;;;;;;12.14;64.96;101401.09;5095913;28;20071;-35
2022/05/30 07:36:05;;;;;;;5.40;1.02;;;;;;;12.16;66.31;101392.75;5096110;28;20024;-35
2022/05/30 07:38:31;;;;;;;7.05;2.13;;;;;;;12.13;66.33;101390.47;5096490;28;20039;-35
2022/05/30 07:40:56;;;;;;;3.33;1.05;;;;;;;11.67;63.39;101364.75;5095765;28;20032;-35
2022/05/30 07:43:21;;;;;;;4.00;1.00;;;;;;;11.92;64.75;101405.34;5095691;28;20388;-35
2022/05/30 07:45:47;;;;;;;3.67;1.07;;;;;;;11.76;63.62;101398.56;5096405;28;20111;-35
2022/05/30 07:48:12;;;;;;;5.97;1.35;;;;;;;11.67;62.88;101403.50;5096019;28;20055;-35
2022/05/30 07:50:38;;;;;;;3.33;1.40;;;;;;;11.86;67.16;101401.66;5095402;28;20024;-35
2022/05/30 07:53:04;;;;;;;3.95;1.17;;;;;;;11.86;64.05;101398.94;5095452;28;20024;-35
2022/05/30 07:55:30;;;;;;;3.45;1.10;;;;;;;12.08;64.55;101393.88;5096261;28;20406;-35
2022/05/30 07:58:04;;;;;;;3.78;1.42;;;;;;;12.05;62.79;101397.88;5095504;28;20097;-35
2022/05/30 08:00:33;;;;;;;5.88;1.50;;;;;;;12.24;63.94;101395.94;5095670;28;20028;-35
2022/05/30 08:02:58;;;;;;;3.15;1.35;;;;;;;12.63;62.90;101391.84;5095448;28;20111;-35
2022/05/30 08:05:24;;;;;;;3.60;1.50;;;;;;;12.82;59.53;101386.38;5095401;28;20032;-35
2022/05/30 08:07:49;;;;;;;4.35;1.17;;;;;;;12.94;57.49;101398.09;5096071;28;20040;-35
2022/05/30 08:10:16;;;;;;;5.13;1.60;;;;;;;13.32;59.23;101397.69;5094943;28;20445;-35
2022/05/30 08:12:42;;;;;;;4.75;1.20;;;;;;;13.40;58.42;101391.91;5095676;28;20599;-35
2022/05/30 08:15:08;;;;;;;4.43;1.40;;;;;;;13.63;57.13;101387.53;5095062;28;20024;-35
2022/05/30 08:17:33;;;;;;;;;;;;;;;13.45;52.07;101393.09;5096059;28;20028;-35
2022/05/30 08:20:01;;;;;;;3.80;1.00;;;;;;;13.61;54.23;101387.75;5095337;28;19908;-35
2022/05/30 08:22:27;;;;;;;3.97;1.17;;;;;;;13.61;55.32;101382.31;5095446;28;20802;-35
2022/05/30 08:24:53;;;;;;;4.47;0.95;;;;;;;13.61;55.14;101387.75;5095160;28;20028;-35
2022/05/30 08:27:19;;;;;;;4.38;1.58;;;;;;;13.61;55.56;101390.47;5094925;28;20028;-35
2022/05/30 08:29:45;;;;;;;5.40;1.10;;;;;;;13.76;56.88;101386.44;5095113;28;20249;-35
2022/05/30 08:32:12;;;;;;;2.97;1.05;;;;;;;13.90;54.55;101393.25;5094977;28;20575;-35
2022/05/30 08:34:39;;;;;;;3.28;1.10;;;;;;;13.68;53.34;101389.53;5095280;28;20055;-35
2022/05/30 08:37:06;;;;;;;3.58;1.10;;;;;;;13.62;55.87;101402.19;5095024;28;20039;-35
2022/05/30 08:42:23;;;;;;;3.30;0.88;;;;;;;13.59;54.98;101394.50;5093338;28;20494;-35
2022/05/30 08:44:49;;;;;;;1.90;0.80;;;;;;;13.78;54.69;101403.34;5094657;28;20113;-35
2022/05/30 08:47:46;;;;;;;4.32;1.05;;;;;;;13.79;55.97;101394.94;5094479;28;20487;-35
2022/05/30 08:50:22;;;;;;;3.92;1.05;;;;;;;13.65;55.01;101402.50;5094720;28;20087;-35
2022/05/30 08:52:59;;;;;;;5.03;1.05;;;;;;;13.80;53.82;101382.16;5095022;28;20024;-35
2022/05/30 08:55:33;;;;;;;2.38;0.80;;;;;;;14.18;53.40;101401.47;5094319;28;20028;-35
2022/05/30 08:58:29;;;;;;;2.53;0.95;;;;;;;14.08;51.08;101405.88;5094829;28;20028;-35
2022/05/30 09:01:00;;;;;;;5.97;1.10;;;;;;;14.05;52.52;101406.34;5094057;28;20067;-35
2022/05/30 09:04:16;;;;;;;3.22;0.80;;;;;;;13.95;52.11;101403.41;5093927;28;20021;-35
2022/05/30 09:06:45;;;;;;;4.57;1.30;;;;;;;13.76;53.11;101400.00;5094148;28;20032;-35
2022/05/30 09:09:48;;;;;;;3.65;1.10;;;;;;;13.75;54.85;101406.53;5094204;28;20422;-35
2022/05/30 09:12:29;;;;;;;4.22;0.80;;;;;;;13.73;53.07;101400.50;5094212;28;20376;-35
2022/05/30 09:15:19;;;;;;;4.93;1.05;;;;;;;13.84;54.75;101410.53;5094229;28;20024;-35
2022/05/30 09:17:54;;;;;;;2.70;0.90;;;;;;;13.87;53.01;101401.91;5094238;28;20065;-35
2022/05/30 09:20:22;;;;;;;2.53;0.95;;;;;;;14.07;52.42;101410.50;5093936;28;20028;-35
2022/05/30 09:22:48;;;;;;;3.00;0.90;;;;;;;14.41;53.24;101405.19;5093788;28;20039;-35
2022/05/30 09:28:03;;;;;;;4.15;1.50;;;;;;;14.99;50.36;101395.91;5094191;28;19919;-35
2022/05/30 09:30:41;;;;;;;4.78;1.40;;;;;;;14.89;50.28;101395.75;5093623;28;20028;-35
2022/05/30 09:33:28;;;;;;;2.67;0.98;;;;;;;14.99;51.83;101400.53;5093654;28;20048;-35
2022/05/30 09:36:11;;;;;;;5.15;0.88;;;;;;;14.96;53.01;101396.41;5093274;28;20105;-35
2022/05/30 09:38:42;;;;;;;3.55;1.00;;;;;;;14.48;48.35;101405.88;5093745;28;20142;-35
2022/05/30 09:41:15;;;;;;;2.92;0.95;;;;;;;14.29;49.64;101396.22;5093633;28;20456;-35
2022/05/30 09:43:52;;;;;;;4.07;1.10;;;;;;;14.24;50.28;101405.09;5093485;28;20040;-35
2022/05/30 09:46:35;;;;;;;4.47;1.40;;;;;;;14.35;52.42;101396.09;5093121;28;20028;-35
2022/05/30 09:49:07;;;;;;;2.83;0.90;;;;;;;14.28;51.44;101397.28;5093170;28;20468;-35
2022/05/30 09:51:42;;;;;;;4.22;1.00;;;;;;;14.38;52.23;101400.22;5093644;28;20056;-35
2022/05/30 09:54:11;;;;;;;4.03;1.17;;;;;;;14.36;50.13;101399.63;5093270;28;20368;-35
2022/05/30 09:56:40;;;;;;;2.60;0.70;;;;;;;14.30;48.38;101409.59;5093580;28;20032;-35
2022/05/30 09:59:23;;;;;;;3.38;0.70;;;;;;;14.31;48.79;101405.00;5093326;28;20024;-35
2022/05/30 10:01:51;;;;;;;2.42;0.77;;;;;;;14.30;50.70;101401.44;5093778;28;20028;-35
2022/05/30 10:04:41;;;;;;;4.55;1.02;;;;;;;14.31;51.06;101410.44;5093952;28;20039;-35
2022/05/30 10:07:06;;;;;;;2.08;0.60;;;;;;;14.55;45.66;101395.69;5093740;28;20085;-35
2022/05/30 10:09:35;;;;;;;;;;;;;;;15.05;47.20;101389.47;5094518;28;20024;-35
2022/05/30 10:12:02;;;;;;;3.33;0.60;;;;;;;15.51;47.02;101392.88;5092595;28;19915;-35
2022/05/30 10:14:33;;;;;;;2.80;0.73;;;;;;;15.84;46.49;101388.47;5092955;28;20547;-36
2022/05/30 10:17:11;;;;;;;3.75;0.93;;;;;;;15.89;45.61;101388.53;5092762;28;20024;-36
2022/05/30 10:19:41;;;;;;;2.17;0.60;;;;;;;15.88;47.58;101392.34;5092975;28;20384;-35
2022/05/30 10:28:15;;;;;;;1.73;0.60;;;;;;;16.13;46.27;101386.38;5070883;28;20090;-35
2022/05/30 10:30:54;;;;;;;2.85;0.90;;;;;;;15.82;44.82;101369.66;5070438;28;20041;-35
2022/05/30 10:33:30;;;;;;;3.08;0.95;;;;;;;15.78;46.64;101382.13;5070177;28;20053;-36
2022/05/30 10:36:05;;;;;;;3.35;0.90;;;;;;;16.14;45.81;101385.28;5070360;28;20531;-36
2022/05/30 10:38:39;;;;;;;2.10;0.70;;;;;;;16.04;44.25;101377.81;5071007;28;20043;-35
2022/05/30 10:41:19;;;;;;;1.90;0.75;;;;;;;16.00;44.39;101387.56;5070454;28;20471;-35
2022/05/30 10:43:57;;;;;;;3.95;1.10;;;;;;;15.74;44.84;101399.25;5070609;28;20051;-35
2022/05/30 10:46:39;;;;;;;3.50;0.80;;;;;;;15.68;46.23;101392.91;5070246;28;20032;-35
2022/05/30 10:49:13;;;;;;;2.97;0.70;;;;;;;15.59;45.84;101402.56;5070691;28;20063;-35
2022/05/30 10:52:02;;;;;;;2.30;0.80;;;;;;;15.56;46.21;101395.69;5070765;28;20040;-36
2022/05/30 10:54:38;;;;;;;2.83;0.80;;;;;;;15.45;45.66;101400.16;5070287;28;20033;-35
2022/05/30 10:57:15;;;;;;;3.72;0.70;;;;;;;15.42;46.17;101405.28;5070638;28;20071;-35
2022/05/30 10:59:47;;;;;;;2.13;0.80;;;;;;;15.37;46.01;101397.88;5070570;28;20037;-35
2022/05/30 11:02:29;;;;;;;3.28;0.80;;;;;;;15.33;45.67;101406.81;5081770;28;20067;-35
2022/05/30 11:05:38;;;;;;;3.08;1.10;;;;;;;15.45;47.11;101405.63;5093532;28;20074;-35
2022/05/30 11:08:06;;;;;;;3.60;0.75;;;;;;;15.40;47.01;101391.09;5073779;28;20052;-35
2022/05/30 11:11:04;;;;;;;2.75;0.70;;;;;;;15.55;48.33;101398.69;5073689;28;20114;-35
2022/05/30 11:13:43;;;;;;;1.80;0.75;;;;;;;15.62;47.70;101394.72;5074329;28;20025;-35
2022/05/30 11:16:43;;;;;;;5.47;1.15;;;;;;;15.72;48.31;101404.13;5074330;28;20373;-35
2022/05/30 11:19:45;;;;;;;3.35;0.85;;;;;;;15.85;47.55;101404.56;5074231;28;20151;-35
2022/05/30 11:22:31;;;;;;;2.22;0.90;;;;;;;15.77;46.70;101401.47;5074233;28;20028;-35
2022/05/30 11:24:57;;;;;;;3.53;1.10;;;;;;;15.73;47.79;101398.44;5073800;28;20049;-36
2022/05/30 11:27:22;;;;;;;;;;;;;;;15.94;48.54;101399.50;5074432;28;20032;-35
2022/05/30 11:30:02;;;;;;;4.57;0.73;;;;;;;15.71;46.43;101386.94;5073383;28;19951;-35
2022/05/30 11:32:53;;;;;;;4.32;1.02;;;;;;;15.78;46.23;101381.31;5073372;28;20131;-35
2022/05/30 11:35:37;;;;;;;1.95;0.80;;;;;;;15.82;44.98;101393.38;5073963;28;20044;-35
2022/05/30 11:38:21;;;;;;;2.47;0.70;;;;;;;15.83;45.56;101400.47;5073732;28;20520;-35
2022/05/30 11:40:49;;;;;;;2.10;0.70;;;;;;;15.73;45.43;101400.34;5073156;28;20036;-35
2022/05/30 11:43:20;;;;;;;2.65;0.75;;;;;;;15.66;44.53;101409.53;5073574;28;20028;-35
2022/05/30 11:45:51;;;;;;;2.95;0.80;;;;;;;15.76;45.09;101411.53;5095782;28;20040;-35
2022/05/30 11:48:49;;;;;;;3.90;0.82;;;;;;;15.68;45.16;101403.81;5095731;28;20046;-35
2022/05/30 11:51:23;;;;;;;;;;;;;;;16.00;46.79;101403.94;5074040;28;20397;-35
2022/05/30 11:54:13;;;;;;;1.73;0.77;;;;;;;15.90;44.63;101407.38;5073327;28;19912;-35
2022/05/30 11:56:55;;;;;;;4.05;0.60;;;;;;;16.05;46.40;101395.00;5073643;28;20389;-35
2022/05/30 11:59:20;;;;;;;3.58;1.00;;;;;;;16.12;45.65;101401.94;5073057;28;20405;-35
2022/05/30 12:01:50;;;;;;;4.63;1.10;;;;;;;16.07;45.20;101399.13;5073036;28;20147;-35
2022/05/30 12:04:48;;;;;;;2.35;0.80;;;;;;;16.18;46.84;101395.44;5073401;28;20037;-36
2022/05/30 12:07:20;;;;;;;1.15;0.60;;;;;;;16.17;45.27;101401.16;5072802;28;20033;-35